sensor_id;sensor_type;location;lat;lon;timestamp;P1;durP1;ratioP1;P2;durP2;ratioP2
70477;SDS011;57956;53.362;-1.518;2022-09-02T00:02:21;3.50;;;0.85;;
70477;SDS011;57956;53.362;-1.518;2022-09-02T00:04:47;3.63;;;0.90;;
70477;SDS011;57956;53.362;-1.518;2022-09-02T00:07:12;2.70;;;0.77;;
70477;SDS011;57956;53.362;-1.518;2022-09-02T00:09:37;8.93;;;1.00;;
70477;SDS011;57956;53.362;-1.518;2022-09-02T00:12:04;3.85;;;1.38;;
70477;SDS011;57956;53.362;-1.518;2022-09-02T00:14:32;3.40;;;0.97;;
70477;SDS011;57956;53.362;-1.518;2022-09-02T00:16:57;4.40;;;0.90;;
70477;SDS011;57956;53.362;-1.518;2022-09-02T00:19:25;3.42;;;1.02;;
70477;SDS011;57956;53.362;-1.518;2022-09-02T00:21:51;3.72;;;1.15;;
70477;SDS011;57956;53.362;-1.518;2022-09-02T00:24:17;3.10;;;0.80;;
70477;SDS011;57956;53.362;-1.518;2022-09-02T00:26:43;3.93;;;1.43;;
70477;SDS011;57956;53.362;-1.518;2022-09-02T00:29:08;3.50;;;1.00;;
70477;SDS011;57956;53.362;-1.518;2022-09-02T00:31:33;4.72;;;1.30;;
70477;SDS011;57956;53.362;-1.518;2022-09-02T00:34:00;2.63;;;1.10;;
70477;SDS011;57956;53.362;-1.518;2022-09-02T00:36:25;4.87;;;1.00;;
70477;SDS011;57956;53.362;-1.518;2022-09-02T00:38:51;3.93;;;0.87;;
70477;SDS011;57956;53.362;-1.518;2022-09-02T00:41:17;3.10;;;0.97;;
70477;SDS011;57956;53.362;-1.518;2022-09-02T00:43:45;3.67;;;0.90;;
70477;SDS011;57956;53.362;-1.518;2022-09-02T00:46:12;3.88;;;1.00;;
70477;SDS011;57956;53.362;-1.518;2022-09-02T00:48:39;2.92;;;1.00;;
70477;SDS011;57956;53.362;-1.518;2022-09-02T00:51:06;3.08;;;0.90;;
70477;SDS011;57956;53.362;-1.518;2022-09-02T00:53:32;5.50;;;0.90;;
70477;SDS011;57956;53.362;-1.518;2022-09-02T00:55:57;3.65;;;0.80;;
70477;SDS011;57956;53.362;-1.518;2022-09-02T00:58:25;3.00;;;1.10;;
70477;SDS011;57956;53.362;-1.518;2022-09-02T01:00:52;4.15;;;0.93;;
70477;SDS011;57956;53.362;-1.518;2022-09-02T01:03:21;3.55;;;0.88;;
70477;SDS011;57956;53.362;-1.518;2022-09-02T01:05:48;3.17;;;1.00;;
70477;SDS011;57956;53.362;-1.518;2022-09-02T01:08:15;3.25;;;1.20;;
70477;SDS011;57956;53.362;-1.518;2022-09-02T01:10:41;3.77;;;0.80;;
70477;SDS011;57956;53.362;-1.518;2022-09-02T01:13:08;3.45;;;1.42;;
70477;SDS011;57956;53.362;-1.518;2022-09-02T01:15:35;5.00;;;1.15;;
70477;SDS011;57956;53.362;-1.518;2022-09-02T01:18:03;3.92;;;0.90;;
70477;SDS011;57956;53.362;-1.518;2022-09-02T01:20:28;5.32;;;1.17;;
70477;SDS011;57956;53.362;-1.518;2022-09-02T01:22:54;9.03;;;1.20;;
70477;SDS011;57956;53.362;-1.518;2022-09-02T01:25:22;3.55;;;0.90;;
70477;SDS011;57956;53.362;-1.518;2022-09-02T01:27:47;3.53;;;0.67;;
70477;SDS011;57956;53.362;-1.518;2022-09-02T01:30:15;4.10;;;1.33;;
70477;SDS011;57956;53.362;-1.518;2022-09-02T01:32:40;3.63;;;0.90;;
70477;SDS011;57956;53.362;-1.518;2022-09-02T01:35:06;4.13;;;1.30;;
70477;SDS011;57956;53.362;-1.518;2022-09-02T01:37:31;3.13;;;0.77;;
70477;SDS011;57956;53.362;-1.518;2022-09-02T01:39:57;4.28;;;1.40;;
70477;SDS011;57956;53.362;-1.518;2022-09-02T01:42:23;3.33;;;1.13;;
70477;SDS011;57956;53.362;-1.518;2022-09-02T01:44:48;4.80;;;1.48;;
70477;SDS011;57956;53.362;-1.518;2022-09-02T01:47:22;4.97;;;1.13;;
70477;SDS011;57956;53.362;-1.518;2022-09-02T01:49:48;2.97;;;0.75;;
70477;SDS011;57956;53.362;-1.518;2022-09-02T01:52:13;2.75;;;0.90;;
70477;SDS011;57956;53.362;-1.518;2022-09-02T01:54:39;3.00;;;0.70;;
70477;SDS011;57956;53.362;-1.518;2022-09-02T01:57:04;5.10;;;1.17;;
70477;SDS011;57956;53.362;-1.518;2022-09-02T01:59:30;4.03;;;1.20;;
70477;SDS011;57956;53.362;-1.518;2022-09-02T02:01:55;3.93;;;1.70;;
70477;SDS011;57956;53.362;-1.518;2022-09-02T02:04:21;3.07;;;1.00;;
70477;SDS011;57956;53.362;-1.518;2022-09-02T02:06:49;3.65;;;1.17;;
70477;SDS011;57956;53.362;-1.518;2022-09-02T02:09:15;5.32;;;1.10;;
70477;SDS011;57956;53.362;-1.518;2022-09-02T02:11:40;4.63;;;1.63;;
70477;SDS011;57956;53.362;-1.518;2022-09-02T02:14:06;4.33;;;1.40;;
70477;SDS011;57956;53.362;-1.518;2022-09-02T02:16:31;4.77;;;1.33;;
70477;SDS011;57956;53.362;-1.518;2022-09-02T02:18:57;3.73;;;1.10;;
70477;SDS011;57956;53.362;-1.518;2022-09-02T02:21:23;4.32;;;1.42;;
70477;SDS011;57956;53.362;-1.518;2022-09-02T02:23:48;4.97;;;1.60;;
70477;SDS011;57956;53.362;-1.518;2022-09-02T02:26:14;4.10;;;1.47;;
70477;SDS011;57956;53.362;-1.518;2022-09-02T02:28:39;11.40;;;1.47;;
70477;SDS011;57956;53.362;-1.518;2022-09-02T02:31:05;5.80;;;1.50;;
70477;SDS011;57956;53.362;-1.518;2022-09-02T02:33:30;4.10;;;1.60;;
70477;SDS011;57956;53.362;-1.518;2022-09-02T02:35:56;3.40;;;1.10;;
70477;SDS011;57956;53.362;-1.518;2022-09-02T02:38:21;3.67;;;1.17;;
70477;SDS011;57956;53.362;-1.518;2022-09-02T02:40:47;5.57;;;2.13;;
70477;SDS011;57956;53.362;-1.518;2022-09-02T02:43:12;7.97;;;1.30;;
70477;SDS011;57956;53.362;-1.518;2022-09-02T02:45:37;3.67;;;1.17;;
70477;SDS011;57956;53.362;-1.518;2022-09-02T02:48:03;4.90;;;1.57;;
70477;SDS011;57956;53.362;-1.518;2022-09-02T02:50:29;5.60;;;1.90;;
70477;SDS011;57956;53.362;-1.518;2022-09-02T02:52:54;6.40;;;1.73;;
70477;SDS011;57956;53.362;-1.518;2022-09-02T02:55:21;6.70;;;1.98;;
70477;SDS011;57956;53.362;-1.518;2022-09-02T02:57:47;6.03;;;2.78;;
70477;SDS011;57956;53.362;-1.518;2022-09-02T03:00:13;5.67;;;2.20;;
70477;SDS011;57956;53.362;-1.518;2022-09-02T03:02:39;5.43;;;2.03;;
70477;SDS011;57956;53.362;-1.518;2022-09-02T03:05:05;4.73;;;1.50;;
70477;SDS011;57956;53.362;-1.518;2022-09-02T03:07:30;5.95;;;1.48;;
70477;SDS011;57956;53.362;-1.518;2022-09-02T03:09:56;4.43;;;1.60;;
70477;SDS011;57956;53.362;-1.518;2022-09-02T03:12:21;6.43;;;1.63;;
70477;SDS011;57956;53.362;-1.518;2022-09-02T03:14:47;5.07;;;1.83;;
70477;SDS011;57956;53.362;-1.518;2022-09-02T03:17:13;4.97;;;1.77;;
70477;SDS011;57956;53.362;-1.518;2022-09-02T03:19:38;5.17;;;1.83;;
70477;SDS011;57956;53.362;-1.518;2022-09-02T03:22:03;6.90;;;1.83;;
70477;SDS011;57956;53.362;-1.518;2022-09-02T03:24:29;6.90;;;1.67;;
70477;SDS011;57956;53.362;-1.518;2022-09-02T03:26:54;4.03;;;1.60;;
70477;SDS011;57956;53.362;-1.518;2022-09-02T03:29:19;6.70;;;2.03;;
70477;SDS011;57956;53.362;-1.518;2022-09-02T03:31:45;7.73;;;2.43;;
70477;SDS011;57956;53.362;-1.518;2022-09-02T03:34:10;7.60;;;2.40;;
70477;SDS011;57956;53.362;-1.518;2022-09-02T03:36:37;7.88;;;2.35;;
70477;SDS011;57956;53.362;-1.518;2022-09-02T03:39:03;6.03;;;2.07;;
70477;SDS011;57956;53.362;-1.518;2022-09-02T03:41:29;8.07;;;2.03;;
70477;SDS011;57956;53.362;-1.518;2022-09-02T03:43:54;6.20;;;1.93;;
70477;SDS011;57956;53.362;-1.518;2022-09-02T03:46:20;5.32;;;1.58;;
70477;SDS011;57956;53.362;-1.518;2022-09-02T03:48:46;8.60;;;2.70;;
70477;SDS011;57956;53.362;-1.518;2022-09-02T03:51:11;8.32;;;2.17;;
70477;SDS011;57956;53.362;-1.518;2022-09-02T03:53:37;6.10;;;2.43;;
70477;SDS011;57956;53.362;-1.518;2022-09-02T03:56:06;6.30;;;2.50;;
70477;SDS011;57956;53.362;-1.518;2022-09-02T03:58:32;8.00;;;2.35;;
70477;SDS011;57956;53.362;-1.518;2022-09-02T04:00:58;8.63;;;2.17;;
70477;SDS011;57956;53.362;-1.518;2022-09-02T04:03:24;7.33;;;2.30;;
70477;SDS011;57956;53.362;-1.518;2022-09-02T04:05:49;6.80;;;2.70;;
70477;SDS011;57956;53.362;-1.518;2022-09-02T04:08:16;13.15;;;2.63;;
70477;SDS011;57956;53.362;-1.518;2022-09-02T04:10:41;7.63;;;3.00;;
70477;SDS011;57956;53.362;-1.518;2022-09-02T04:13:07;5.67;;;1.73;;
70477;SDS011;57956;53.362;-1.518;2022-09-02T04:15:32;7.30;;;1.63;;
70477;SDS011;57956;53.362;-1.518;2022-09-02T04:17:58;7.55;;;2.60;;
70477;SDS011;57956;53.362;-1.518;2022-09-02T04:20:23;8.00;;;2.73;;
70477;SDS011;57956;53.362;-1.518;2022-09-02T04:22:48;11.60;;;2.40;;
70477;SDS011;57956;53.362;-1.518;2022-09-02T04:25:13;10.17;;;2.60;;
70477;SDS011;57956;53.362;-1.518;2022-09-02T04:27:39;7.30;;;1.90;;
70477;SDS011;57956;53.362;-1.518;2022-09-02T04:30:05;9.23;;;2.50;;
70477;SDS011;57956;53.362;-1.518;2022-09-02T04:32:31;5.82;;;2.13;;
70477;SDS011;57956;53.362;-1.518;2022-09-02T04:34:57;9.20;;;2.85;;
70477;SDS011;57956;53.362;-1.518;2022-09-02T04:37:22;11.30;;;3.37;;
70477;SDS011;57956;53.362;-1.518;2022-09-02T04:39:47;9.60;;;2.73;;
70477;SDS011;57956;53.362;-1.518;2022-09-02T04:42:13;5.27;;;1.50;;
70477;SDS011;57956;53.362;-1.518;2022-09-02T04:44:38;6.73;;;2.60;;
70477;SDS011;57956;53.362;-1.518;2022-09-02T04:47:03;13.33;;;2.83;;
70477;SDS011;57956;53.362;-1.518;2022-09-02T04:49:29;8.15;;;2.78;;
70477;SDS011;57956;53.362;-1.518;2022-09-02T04:51:56;11.47;;;2.30;;
70477;SDS011;57956;53.362;-1.518;2022-09-02T04:54:22;8.70;;;3.20;;
70477;SDS011;57956;53.362;-1.518;2022-09-02T04:56:47;12.40;;;3.03;;
70477;SDS011;57956;53.362;-1.518;2022-09-02T04:59:13;9.03;;;5.03;;
70477;SDS011;57956;53.362;-1.518;2022-09-02T05:01:38;8.77;;;3.33;;
70477;SDS011;57956;53.362;-1.518;2022-09-02T05:04:06;9.80;;;2.47;;
70477;SDS011;57956;53.362;-1.518;2022-09-02T05:06:34;8.33;;;2.77;;
70477;SDS011;57956;53.362;-1.518;2022-09-02T05:09:00;9.32;;;2.60;;
70477;SDS011;57956;53.362;-1.518;2022-09-02T05:11:28;8.15;;;3.38;;
70477;SDS011;57956;53.362;-1.518;2022-09-02T05:13:54;12.05;;;3.10;;
70477;SDS011;57956;53.362;-1.518;2022-09-02T05:16:21;9.77;;;3.15;;
70477;SDS011;57956;53.362;-1.518;2022-09-02T05:18:47;10.07;;;2.77;;
70477;SDS011;57956;53.362;-1.518;2022-09-02T05:21:13;9.38;;;3.55;;
70477;SDS011;57956;53.362;-1.518;2022-09-02T05:23:38;10.03;;;3.67;;
70477;SDS011;57956;53.362;-1.518;2022-09-02T05:26:04;11.55;;;4.72;;
70477;SDS011;57956;53.362;-1.518;2022-09-02T05:28:30;11.30;;;4.00;;
70477;SDS011;57956;53.362;-1.518;2022-09-02T05:31:00;7.63;;;2.28;;
70477;SDS011;57956;53.362;-1.518;2022-09-02T05:33:26;11.30;;;2.90;;
70477;SDS011;57956;53.362;-1.518;2022-09-02T05:35:51;8.40;;;2.33;;
70477;SDS011;57956;53.362;-1.518;2022-09-02T05:38:18;8.13;;;2.72;;
70477;SDS011;57956;53.362;-1.518;2022-09-02T05:40:44;9.83;;;3.00;;
70477;SDS011;57956;53.362;-1.518;2022-09-02T05:43:10;9.80;;;3.47;;
70477;SDS011;57956;53.362;-1.518;2022-09-02T05:45:36;14.70;;;2.90;;
70477;SDS011;57956;53.362;-1.518;2022-09-02T05:48:02;11.32;;;3.42;;
70477;SDS011;57956;53.362;-1.518;2022-09-02T05:50:47;9.27;;;2.47;;
70477;SDS011;57956;53.362;-1.518;2022-09-02T05:53:12;7.87;;;2.17;;
70477;SDS011;57956;53.362;-1.518;2022-09-02T05:55:37;8.07;;;2.40;;
70477;SDS011;57956;53.362;-1.518;2022-09-02T05:58:04;8.50;;;2.53;;
70477;SDS011;57956;53.362;-1.518;2022-09-02T06:00:29;16.67;;;3.25;;
70477;SDS011;57956;53.362;-1.518;2022-09-02T06:02:54;5.77;;;1.83;;
70477;SDS011;57956;53.362;-1.518;2022-09-02T06:05:20;10.10;;;2.70;;
70477;SDS011;57956;53.362;-1.518;2022-09-02T06:07:45;9.63;;;2.53;;
70477;SDS011;57956;53.362;-1.518;2022-09-02T06:10:11;14.43;;;2.60;;
70477;SDS011;57956;53.362;-1.518;2022-09-02T06:12:37;7.47;;;2.80;;
70477;SDS011;57956;53.362;-1.518;2022-09-02T06:15:02;8.13;;;2.80;;
70477;SDS011;57956;53.362;-1.518;2022-09-02T06:17:28;6.97;;;2.67;;
70477;SDS011;57956;53.362;-1.518;2022-09-02T06:19:53;7.93;;;3.60;;
70477;SDS011;57956;53.362;-1.518;2022-09-02T06:22:19;7.90;;;2.83;;
70477;SDS011;57956;53.362;-1.518;2022-09-02T06:24:44;9.37;;;3.17;;
70477;SDS011;57956;53.362;-1.518;2022-09-02T06:27:09;7.60;;;3.07;;
70477;SDS011;57956;53.362;-1.518;2022-09-02T06:29:36;8.00;;;2.80;;
70477;SDS011;57956;53.362;-1.518;2022-09-02T06:32:02;10.87;;;4.30;;
70477;SDS011;57956;53.362;-1.518;2022-09-02T06:34:27;6.57;;;2.08;;
70477;SDS011;57956;53.362;-1.518;2022-09-02T06:36:53;8.07;;;2.90;;
70477;SDS011;57956;53.362;-1.518;2022-09-02T06:39:19;7.57;;;2.23;;
70477;SDS011;57956;53.362;-1.518;2022-09-02T06:41:46;7.20;;;1.92;;
70477;SDS011;57956;53.362;-1.518;2022-09-02T06:44:12;7.43;;;2.78;;
70477;SDS011;57956;53.362;-1.518;2022-09-02T06:46:40;11.38;;;3.70;;
70477;SDS011;57956;53.362;-1.518;2022-09-02T06:49:08;9.20;;;3.35;;
70477;SDS011;57956;53.362;-1.518;2022-09-02T06:51:37;8.17;;;3.27;;
70477;SDS011;57956;53.362;-1.518;2022-09-02T06:54:03;10.38;;;3.40;;
70477;SDS011;57956;53.362;-1.518;2022-09-02T06:56:29;8.07;;;2.38;;
70477;SDS011;57956;53.362;-1.518;2022-09-02T06:58:55;6.27;;;2.17;;
70477;SDS011;57956;53.362;-1.518;2022-09-02T07:01:21;11.20;;;3.45;;
70477;SDS011;57956;53.362;-1.518;2022-09-02T07:03:47;7.70;;;2.33;;
70477;SDS011;57956;53.362;-1.518;2022-09-02T07:06:40;6.20;;;2.75;;
70477;SDS011;57956;53.362;-1.518;2022-09-02T07:09:06;9.15;;;3.05;;
70477;SDS011;57956;53.362;-1.518;2022-09-02T07:11:32;9.83;;;2.30;;
70477;SDS011;57956;53.362;-1.518;2022-09-02T07:13:57;7.55;;;1.95;;
70477;SDS011;57956;53.362;-1.518;2022-09-02T07:16:26;8.63;;;3.03;;
70477;SDS011;57956;53.362;-1.518;2022-09-02T07:18:51;8.05;;;2.75;;
70477;SDS011;57956;53.362;-1.518;2022-09-02T07:21:17;8.05;;;2.80;;
70477;SDS011;57956;53.362;-1.518;2022-09-02T07:23:42;7.93;;;2.93;;
70477;SDS011;57956;53.362;-1.518;2022-09-02T07:26:11;6.60;;;1.97;;
70477;SDS011;57956;53.362;-1.518;2022-09-02T07:28:37;10.45;;;2.53;;
70477;SDS011;57956;53.362;-1.518;2022-09-02T07:31:06;8.40;;;3.00;;
70477;SDS011;57956;53.362;-1.518;2022-09-02T07:33:31;9.20;;;3.95;;
70477;SDS011;57956;53.362;-1.518;2022-09-02T07:35:56;8.83;;;2.50;;
70477;SDS011;57956;53.362;-1.518;2022-09-02T07:38:22;8.43;;;2.50;;
70477;SDS011;57956;53.362;-1.518;2022-09-02T07:40:47;5.35;;;2.50;;
70477;SDS011;57956;53.362;-1.518;2022-09-02T07:43:14;8.27;;;3.15;;
70477;SDS011;57956;53.362;-1.518;2022-09-02T07:45:40;7.97;;;2.67;;
70477;SDS011;57956;53.362;-1.518;2022-09-02T07:48:07;5.25;;;2.33;;
70477;SDS011;57956;53.362;-1.518;2022-09-02T07:50:34;9.07;;;3.30;;
70477;SDS011;57956;53.362;-1.518;2022-09-02T07:53:00;5.40;;;2.05;;
70477;SDS011;57956;53.362;-1.518;2022-09-02T07:55:28;14.13;;;4.00;;
70477;SDS011;57956;53.362;-1.518;2022-09-02T07:57:55;6.93;;;1.97;;
70477;SDS011;57956;53.362;-1.518;2022-09-02T08:00:20;7.77;;;1.93;;
70477;SDS011;57956;53.362;-1.518;2022-09-02T08:02:46;7.22;;;3.35;;
70477;SDS011;57956;53.362;-1.518;2022-09-02T08:05:13;8.05;;;2.20;;
70477;SDS011;57956;53.362;-1.518;2022-09-02T08:07:39;9.32;;;2.22;;
70477;SDS011;57956;53.362;-1.518;2022-09-02T08:10:05;6.57;;;2.73;;
70477;SDS011;57956;53.362;-1.518;2022-09-02T08:12:32;7.07;;;2.65;;
70477;SDS011;57956;53.362;-1.518;2022-09-02T08:14:57;6.13;;;1.70;;
70477;SDS011;57956;53.362;-1.518;2022-09-02T08:17:23;6.80;;;1.83;;
70477;SDS011;57956;53.362;-1.518;2022-09-02T08:19:49;8.75;;;2.70;;
70477;SDS011;57956;53.362;-1.518;2022-09-02T08:22:14;6.57;;;2.20;;
70477;SDS011;57956;53.362;-1.518;2022-09-02T08:24:39;6.43;;;2.22;;
70477;SDS011;57956;53.362;-1.518;2022-09-02T08:27:05;5.63;;;2.03;;
70477;SDS011;57956;53.362;-1.518;2022-09-02T08:29:30;5.63;;;2.27;;
70477;SDS011;57956;53.362;-1.518;2022-09-02T08:31:55;6.47;;;2.23;;
70477;SDS011;57956;53.362;-1.518;2022-09-02T08:34:21;6.40;;;2.40;;
70477;SDS011;57956;53.362;-1.518;2022-09-02T08:36:46;7.85;;;2.03;;
70477;SDS011;57956;53.362;-1.518;2022-09-02T08:39:12;6.40;;;2.07;;
70477;SDS011;57956;53.362;-1.518;2022-09-02T08:41:41;5.75;;;2.03;;
70477;SDS011;57956;53.362;-1.518;2022-09-02T08:44:09;7.20;;;2.20;;
70477;SDS011;57956;53.362;-1.518;2022-09-02T08:46:37;8.70;;;2.10;;
70477;SDS011;57956;53.362;-1.518;2022-09-02T08:49:10;8.43;;;2.53;;
70477;SDS011;57956;53.362;-1.518;2022-09-02T08:51:48;4.60;;;2.10;;
70477;SDS011;57956;53.362;-1.518;2022-09-02T08:54:25;5.50;;;1.77;;
70477;SDS011;57956;53.362;-1.518;2022-09-02T08:56:52;4.25;;;1.77;;
70477;SDS011;57956;53.362;-1.518;2022-09-02T08:59:19;6.13;;;2.30;;
70477;SDS011;57956;53.362;-1.518;2022-09-02T09:12:12;5.40;;;1.90;;
70477;SDS011;57956;53.362;-1.518;2022-09-02T09:14:54;4.10;;;1.88;;
70477;SDS011;57956;53.362;-1.518;2022-09-02T09:22:13;5.17;;;1.90;;
70477;SDS011;57956;53.362;-1.518;2022-09-02T09:24:43;4.90;;;2.17;;
70477;SDS011;57956;53.362;-1.518;2022-09-02T09:27:13;5.97;;;2.05;;
70477;SDS011;57956;53.362;-1.518;2022-09-02T09:29:38;5.30;;;2.58;;
70477;SDS011;57956;53.362;-1.518;2022-09-02T09:32:04;5.03;;;2.10;;
70477;SDS011;57956;53.362;-1.518;2022-09-02T09:37:58;9.10;;;1.50;;
70477;SDS011;57956;53.362;-1.518;2022-09-02T09:42:42;5.43;;;1.65;;
70477;SDS011;57956;53.362;-1.518;2022-09-02T09:45:18;4.75;;;2.03;;
70477;SDS011;57956;53.362;-1.518;2022-09-02T09:47:45;4.38;;;1.50;;
70477;SDS011;57956;53.362;-1.518;2022-09-02T09:52:36;8.03;;;2.63;;
70477;SDS011;57956;53.362;-1.518;2022-09-02T09:57:40;5.20;;;1.60;;
70477;SDS011;57956;53.362;-1.518;2022-09-02T10:00:09;4.82;;;1.45;;
70477;SDS011;57956;53.362;-1.518;2022-09-02T10:02:35;3.33;;;1.10;;
70477;SDS011;57956;53.362;-1.518;2022-09-02T10:05:15;4.23;;;1.37;;
70477;SDS011;57956;53.362;-1.518;2022-09-02T10:07:41;3.63;;;1.50;;
70477;SDS011;57956;53.362;-1.518;2022-09-02T10:10:08;4.10;;;1.60;;
70477;SDS011;57956;53.362;-1.518;2022-09-02T10:12:35;6.75;;;2.22;;
70477;SDS011;57956;53.362;-1.518;2022-09-02T10:15:01;4.17;;;1.33;;
70477;SDS011;57956;53.362;-1.518;2022-09-02T10:25:40;4.03;;;1.40;;
70477;SDS011;57956;53.362;-1.518;2022-09-02T10:28:13;3.58;;;1.50;;
70477;SDS011;57956;53.362;-1.518;2022-09-02T10:33:18;3.90;;;1.40;;
70477;SDS011;57956;53.362;-1.518;2022-09-02T10:41:04;2.83;;;1.10;;
70477;SDS011;57956;53.362;-1.518;2022-09-02T10:46:20;3.10;;;0.90;;
70477;SDS011;57956;53.362;-1.518;2022-09-02T10:56:07;3.73;;;1.17;;
70477;SDS011;57956;53.362;-1.518;2022-09-02T10:58:38;4.70;;;1.70;;
70477;SDS011;57956;53.362;-1.518;2022-09-02T11:01:06;3.58;;;1.77;;
70477;SDS011;57956;53.362;-1.518;2022-09-02T11:03:37;3.22;;;1.08;;
70477;SDS011;57956;53.362;-1.518;2022-09-02T11:11:15;3.97;;;0.88;;
70477;SDS011;57956;53.362;-1.518;2022-09-02T11:16:24;3.22;;;1.20;;
70477;SDS011;57956;53.362;-1.518;2022-09-02T11:18:57;4.28;;;1.27;;
70477;SDS011;57956;53.362;-1.518;2022-09-02T11:24:18;3.30;;;1.50;;
70477;SDS011;57956;53.362;-1.518;2022-09-02T11:26:51;3.00;;;0.90;;
70477;SDS011;57956;53.362;-1.518;2022-09-02T11:29:39;5.15;;;1.02;;
70477;SDS011;57956;53.362;-1.518;2022-09-02T11:34:34;3.33;;;1.20;;
70477;SDS011;57956;53.362;-1.518;2022-09-02T11:37:06;5.00;;;1.43;;
70477;SDS011;57956;53.362;-1.518;2022-09-02T11:39:42;2.80;;;0.90;;
70477;SDS011;57956;53.362;-1.518;2022-09-02T11:42:28;3.42;;;1.10;;
70477;SDS011;57956;53.362;-1.518;2022-09-02T11:45:05;3.08;;;0.93;;
70477;SDS011;57956;53.362;-1.518;2022-09-02T11:55:18;3.75;;;0.95;;
70477;SDS011;57956;53.362;-1.518;2022-09-02T11:57:50;2.85;;;0.80;;
70477;SDS011;57956;53.362;-1.518;2022-09-02T12:00:35;3.75;;;1.33;;
70477;SDS011;57956;53.362;-1.518;2022-09-02T12:03:20;3.67;;;1.00;;
70477;SDS011;57956;53.362;-1.518;2022-09-02T12:05:47;2.90;;;0.83;;
70477;SDS011;57956;53.362;-1.518;2022-09-02T12:21:25;2.53;;;1.00;;
70477;SDS011;57956;53.362;-1.518;2022-09-02T12:26:21;3.17;;;0.77;;
70477;SDS011;57956;53.362;-1.518;2022-09-02T12:28:48;4.55;;;2.75;;
70477;SDS011;57956;53.362;-1.518;2022-09-02T12:33:57;2.83;;;0.60;;
70477;SDS011;57956;53.362;-1.518;2022-09-02T12:41:45;2.03;;;0.52;;
70477;SDS011;57956;53.362;-1.518;2022-09-02T12:49:12;2.47;;;0.40;;
70477;SDS011;57956;53.362;-1.518;2022-09-02T12:51:53;2.80;;;0.63;;
70477;SDS011;57956;53.362;-1.518;2022-09-02T12:54:23;2.17;;;0.43;;
70477;SDS011;57956;53.362;-1.518;2022-09-02T12:56:48;2.92;;;0.40;;
70477;SDS011;57956;53.362;-1.518;2022-09-02T13:01:54;2.03;;;0.47;;
70477;SDS011;57956;53.362;-1.518;2022-09-02T13:15:20;2.00;;;0.60;;
70477;SDS011;57956;53.362;-1.518;2022-09-02T13:17:53;3.03;;;0.80;;
70477;SDS011;57956;53.362;-1.518;2022-09-02T13:33:27;2.23;;;0.50;;
70477;SDS011;57956;53.362;-1.518;2022-09-02T13:35:53;1.90;;;0.47;;
70477;SDS011;57956;53.362;-1.518;2022-09-02T13:38:21;2.80;;;0.50;;
70477;SDS011;57956;53.362;-1.518;2022-09-02T13:40:48;2.80;;;0.77;;
70477;SDS011;57956;53.362;-1.518;2022-09-02T13:45:39;3.78;;;1.00;;
70477;SDS011;57956;53.362;-1.518;2022-09-02T13:48:26;3.17;;;0.70;;
70477;SDS011;57956;53.362;-1.518;2022-09-02T13:50:54;2.33;;;0.85;;
70477;SDS011;57956;53.362;-1.518;2022-09-02T13:53:28;2.78;;;0.70;;
70477;SDS011;57956;53.362;-1.518;2022-09-02T13:55:55;2.55;;;0.70;;
70477;SDS011;57956;53.362;-1.518;2022-09-02T13:58:32;3.05;;;1.67;;
70477;SDS011;57956;53.362;-1.518;2022-09-02T14:03:46;2.80;;;0.60;;
70477;SDS011;57956;53.362;-1.518;2022-09-02T14:06:12;3.53;;;0.88;;
70477;SDS011;57956;53.362;-1.518;2022-09-02T14:08:38;1.93;;;0.43;;
70477;SDS011;57956;53.362;-1.518;2022-09-02T14:11:03;2.78;;;0.50;;
70477;SDS011;57956;53.362;-1.518;2022-09-02T14:13:29;2.55;;;0.82;;
70477;SDS011;57956;53.362;-1.518;2022-09-02T14:16:22;3.33;;;0.80;;
70477;SDS011;57956;53.362;-1.518;2022-09-02T14:19:01;2.20;;;0.47;;
70477;SDS011;57956;53.362;-1.518;2022-09-02T14:21:25;2.80;;;0.63;;
70477;SDS011;57956;53.362;-1.518;2022-09-02T14:23:51;2.70;;;0.80;;
70477;SDS011;57956;53.362;-1.518;2022-09-02T14:28:51;2.95;;;0.45;;
70477;SDS011;57956;53.362;-1.518;2022-09-02T14:31:23;2.30;;;0.60;;
70477;SDS011;57956;53.362;-1.518;2022-09-02T14:33:49;2.45;;;0.68;;
70477;SDS011;57956;53.362;-1.518;2022-09-02T14:38:48;3.17;;;0.95;;
70477;SDS011;57956;53.362;-1.518;2022-09-02T14:43:43;2.25;;;0.68;;
70477;SDS011;57956;53.362;-1.518;2022-09-02T14:46:13;1.98;;;0.47;;
70477;SDS011;57956;53.362;-1.518;2022-09-02T14:48:40;2.65;;;1.00;;
70477;SDS011;57956;53.362;-1.518;2022-09-02T14:51:05;2.50;;;0.63;;
70477;SDS011;57956;53.362;-1.518;2022-09-02T14:53:32;3.50;;;0.70;;
70477;SDS011;57956;53.362;-1.518;2022-09-02T14:55:58;2.27;;;0.43;;
70477;SDS011;57956;53.362;-1.518;2022-09-02T14:58:24;1.97;;;0.57;;
70477;SDS011;57956;53.362;-1.518;2022-09-02T15:00:51;1.98;;;0.43;;
70477;SDS011;57956;53.362;-1.518;2022-09-02T15:03:18;2.85;;;0.73;;
70477;SDS011;57956;53.362;-1.518;2022-09-02T15:05:43;1.87;;;0.33;;
70477;SDS011;57956;53.362;-1.518;2022-09-02T15:08:09;2.20;;;0.60;;
70477;SDS011;57956;53.362;-1.518;2022-09-02T15:10:35;2.13;;;0.70;;
70477;SDS011;57956;53.362;-1.518;2022-09-02T15:13:01;2.53;;;0.57;;
70477;SDS011;57956;53.362;-1.518;2022-09-02T15:15:27;2.47;;;0.47;;
70477;SDS011;57956;53.362;-1.518;2022-09-02T15:17:53;2.40;;;0.40;;
70477;SDS011;57956;53.362;-1.518;2022-09-02T15:20:18;2.87;;;0.50;;
70477;SDS011;57956;53.362;-1.518;2022-09-02T15:22:45;9.23;;;2.58;;
70477;SDS011;57956;53.362;-1.518;2022-09-02T15:25:11;1.90;;;0.30;;
70477;SDS011;57956;53.362;-1.518;2022-09-02T15:27:36;2.22;;;0.60;;
70477;SDS011;57956;53.362;-1.518;2022-09-02T15:30:02;1.87;;;0.40;;
70477;SDS011;57956;53.362;-1.518;2022-09-02T15:32:28;2.40;;;0.60;;
70477;SDS011;57956;53.362;-1.518;2022-09-02T15:34:53;2.43;;;0.40;;
70477;SDS011;57956;53.362;-1.518;2022-09-02T15:37:18;2.60;;;0.63;;
70477;SDS011;57956;53.362;-1.518;2022-09-02T15:39:43;1.70;;;0.30;;
70477;SDS011;57956;53.362;-1.518;2022-09-02T15:42:09;2.23;;;0.60;;
70477;SDS011;57956;53.362;-1.518;2022-09-02T15:44:34;2.80;;;0.50;;
70477;SDS011;57956;53.362;-1.518;2022-09-02T15:46:59;1.87;;;0.50;;
70477;SDS011;57956;53.362;-1.518;2022-09-02T15:49:25;2.50;;;0.40;;
70477;SDS011;57956;53.362;-1.518;2022-09-02T15:51:51;2.22;;;0.60;;
70477;SDS011;57956;53.362;-1.518;2022-09-02T15:54:18;1.63;;;0.70;;
70477;SDS011;57956;53.362;-1.518;2022-09-02T15:56:44;2.35;;;0.70;;
70477;SDS011;57956;53.362;-1.518;2022-09-02T15:59:10;2.08;;;0.40;;
70477;SDS011;57956;53.362;-1.518;2022-09-02T16:01:37;2.17;;;0.40;;
70477;SDS011;57956;53.362;-1.518;2022-09-02T16:04:04;2.40;;;0.55;;
70477;SDS011;57956;53.362;-1.518;2022-09-02T16:06:30;6.22;;;0.60;;
70477;SDS011;57956;53.362;-1.518;2022-09-02T16:08:55;2.97;;;0.50;;
70477;SDS011;57956;53.362;-1.518;2022-09-02T16:11:21;2.10;;;0.50;;
70477;SDS011;57956;53.362;-1.518;2022-09-02T16:13:47;2.00;;;0.47;;
70477;SDS011;57956;53.362;-1.518;2022-09-02T16:16:13;1.80;;;0.40;;
70477;SDS011;57956;53.362;-1.518;2022-09-02T16:18:39;2.28;;;0.52;;
70477;SDS011;57956;53.362;-1.518;2022-09-02T16:21:05;2.60;;;0.55;;
70477;SDS011;57956;53.362;-1.518;2022-09-02T16:23:30;1.93;;;0.47;;
70477;SDS011;57956;53.362;-1.518;2022-09-02T16:28:33;2.00;;;0.30;;
70477;SDS011;57956;53.362;-1.518;2022-09-02T16:30:58;3.03;;;0.63;;
70477;SDS011;57956;53.362;-1.518;2022-09-02T16:33:23;2.10;;;0.40;;
70477;SDS011;57956;53.362;-1.518;2022-09-02T16:35:48;2.23;;;0.80;;
70477;SDS011;57956;53.362;-1.518;2022-09-02T16:38:14;2.63;;;0.60;;
70477;SDS011;57956;53.362;-1.518;2022-09-02T16:40:39;2.70;;;0.80;;
70477;SDS011;57956;53.362;-1.518;2022-09-02T16:43:12;2.20;;;0.50;;
70477;SDS011;57956;53.362;-1.518;2022-09-02T16:45:38;2.40;;;0.83;;
70477;SDS011;57956;53.362;-1.518;2022-09-02T16:48:03;2.27;;;0.40;;
70477;SDS011;57956;53.362;-1.518;2022-09-02T16:50:29;2.80;;;0.80;;
70477;SDS011;57956;53.362;-1.518;2022-09-02T16:52:54;2.50;;;0.60;;
70477;SDS011;57956;53.362;-1.518;2022-09-02T16:55:19;2.63;;;0.60;;
70477;SDS011;57956;53.362;-1.518;2022-09-02T16:57:44;2.47;;;0.50;;